Time,TemperatureF,DewpointF,PressureIn,WindDirection,WindDirectionDegrees,WindSpeedMPH,WindSpeedGustMPH,Humidity,HourlyPrecipIn,Conditions,Clouds,dailyrainin,SoftwareType,DateUTC
2013-01-12 00:00:00,39.7,39.4,30.12,WSW,257,0.0,1.0,99,0.01,,---,0.06,VWS V14.01,2013-01-12 05:00:00,
2013-01-12 00:02:00,39.7,39.4,30.12,WSW,257,0.0,1.0,99,0.00,,---,0.00,VWS V14.01,2013-01-12 05:02:00,
2013-01-12 00:07:00,39.7,39.4,30.12,West,266,1.0,3.0,99,0.00,,---,0.00,VWS V14.01,2013-01-12 05:07:00,
2013-01-12 00:12:00,39.7,39.4,30.12,West,266,2.0,3.0,99,0.00,,---,0.00,VWS V14.01,2013-01-12 05:12:00,
2013-01-12 00:17:00,39.7,39.2,30.11,West,266,0.0,3.0,98,0.00,,---,0.00,VWS V14.01,2013-01-12 05:17:00,
2013-01-12 00:22:00,39.8,39.3,30.11,West,266,0.0,2.0,98,0.00,,---,0.00,VWS V14.01,2013-01-12 05:22:00,
2013-01-12 00:27:00,39.8,39.5,30.11,West,266,1.0,2.0,99,0.00,,---,0.00,VWS V14.01,2013-01-12 05:27:00,
2013-01-12 00:32:00,39.8,39.5,30.11,West,266,1.0,2.0,99,0.00,,---,0.00,VWS V14.01,2013-01-12 05:32:00,
2013-01-12 00:37:00,39.8,39.5,30.11,West,266,0.0,1.0,99,0.00,,---,0.00,VWS V14.01,2013-01-12 05:37:00,
2013-01-12 00:42:00,39.8,39.5,30.12,West,266,2.0,2.0,99,0.00,,---,0.00,VWS V14.01,2013-01-12 05:42:00,
2013-01-12 00:47:00,39.8,39.5,30.11,West,266,0.0,2.0,99,0.00,,---,0.00,VWS V14.01,2013-01-12 05:47:00,
2013-01-12 00:52:00,39.8,39.5,30.11,West,266,1.0,3.0,99,0.00,,---,0.00,VWS V14.01,2013-01-12 05:52:00,
2013-01-12 00:57:00,39.8,39.5,30.11,West,266,0.0,2.0,99,0.00,,---,0.00,VWS V14.01,2013-01-12 05:57:00,
2013-01-12 01:02:00,40.0,39.7,30.11,West,266,0.0,1.0,99,0.00,,---,0.00,VWS V14.01,2013-01-12 06:02:00,
2013-01-12 01:07:00,40.1,39.8,30.11,West,266,1.0,2.0,99,0.00,,---,0.00,VWS V14.01,2013-01-12 06:07:00,
2013-01-12 01:12:00,40.0,39.7,30.11,West,266,1.0,1.0,99,0.00,,---,0.00,VWS V14.01,2013-01-12 06:12:00,
2013-01-12 01:17:00,40.0,39.7,30.11,West,266,2.0,3.0,99,0.00,,---,0.00,VWS V14.01,2013-01-12 06:17:00,
2013-01-12 01:22:00,40.1,39.8,30.11,West,266,0.0,2.0,99,0.00,,---,0.00,VWS V14.01,2013-01-12 06:22:00,
2013-01-12 01:27:00,40.0,39.7,30.11,West,266,1.0,1.0,99,0.00,,---,0.00,VWS V14.01,2013-01-12 06:27:00,
2013-01-12 01:32:00,40.0,39.7,30.11,West,266,0.0,1.0,99,0.00,,---,0.00,VWS V14.01,2013-01-12 06:32:00,
2013-01-12 01:37:00,40.0,39.7,30.11,West,266,0.0,1.0,99,0.00,,---,0.00,VWS V14.01,2013-01-12 06:37:00,
2013-01-12 01:42:00,40.0,39.7,30.11,West,266,0.0,1.0,99,0.00,,---,0.00,VWS V14.01,2013-01-12 06:42:00,
2013-01-12 01:47:00,40.1,39.8,30.11,West,266,0.0,1.0,99,0.00,,---,0.00,VWS V14.01,2013-01-12 06:47:00,
2013-01-12 01:52:00,40.2,39.9,30.11,West,266,0.0,0.0,99,0.00,,---,0.00,VWS V14.01,2013-01-12 06:52:00,
2013-01-12 01:57:00,40.2,39.9,30.12,West,266,0.0,1.0,99,0.00,,---,0.00,VWS V14.01,2013-01-12 06:57:00,
2013-01-12 02:02:00,40.2,39.9,30.11,West,266,0.0,1.0,99,0.00,,---,0.00,VWS V14.01,2013-01-12 07:02:00,
2013-01-12 02:07:00,40.2,39.9,30.11,West,266,0.0,0.0,99,0.00,,---,0.00,VWS V14.01,2013-01-12 07:07:00,
2013-01-12 02:12:00,40.3,40.0,30.12,West,266,0.0,1.0,99,0.00,,---,0.00,VWS V14.01,2013-01-12 07:12:00,
2013-01-12 02:17:00,40.4,40.1,30.12,West,269,0.0,2.0,99,0.00,,---,0.00,VWS V14.01,2013-01-12 07:17:00,
2013-01-12 02:22:00,40.6,40.3,30.12,West,277,0.0,2.0,99,0.00,,---,0.00,VWS V14.01,2013-01-12 07:22:00,
2013-01-12 02:27:00,40.7,40.4,30.12,West,277,1.0,2.0,99,0.00,,---,0.00,VWS V14.01,2013-01-12 07:27:00,
2013-01-12 02:31:00,40.9,40.6,30.12,West,279,1.0,2.0,99,0.00,,---,0.00,VWS V14.01,2013-01-12 07:31:00,
2013-01-12 02:36:00,41.2,40.9,30.12,North,5,2.0,3.0,99,0.00,,---,0.00,VWS V14.01,2013-01-12 07:36:00,
2013-01-12 02:41:00,41.4,41.1,30.11,NNW,338,1.0,3.0,99,0.00,,---,0.00,VWS V14.01,2013-01-12 07:41:00,
2013-01-12 02:46:00,41.6,41.3,30.11,NNW,338,1.0,3.0,99,0.00,,---,0.00,VWS V14.01,2013-01-12 07:46:00,
2013-01-12 02:51:00,41.7,41.4,30.11,NW,308,2.0,3.0,99,0.00,,---,0.00,VWS V14.01,2013-01-12 07:51:00,
2013-01-12 02:56:00,41.9,41.6,30.11,NW,313,2.0,4.0,99,0.00,,---,0.00,VWS V14.01,2013-01-12 07:56:00,
2013-01-12 03:01:00,42.0,41.7,30.11,NW,323,0.0,3.0,99,0.00,,---,0.00,VWS V14.01,2013-01-12 08:01:00,
2013-01-12 03:06:00,42.2,41.9,30.11,NNW,331,3.0,4.0,99,0.00,,---,0.00,VWS V14.01,2013-01-12 08:06:00,
2013-01-12 03:11:00,42.1,41.8,30.11,NNW,331,0.0,3.0,99,0.00,,---,0.00,VWS V14.01,2013-01-12 08:11:00,
2013-01-12 03:16:00,42.1,41.8,30.11,North,350,0.0,2.0,99,0.00,,---,0.00,VWS V14.01,2013-01-12 08:16:00,
2013-01-12 03:21:00,42.2,41.9,30.11,North,350,0.0,1.0,99,0.00,,---,0.00,VWS V14.01,2013-01-12 08:21:00,
2013-01-12 03:26:00,42.2,41.9,30.11,North,350,0.0,2.0,99,0.00,,---,0.00,VWS V14.01,2013-01-12 08:26:00,
2013-01-12 03:31:00,42.2,41.9,30.10,North,350,0.0,1.0,99,0.00,,---,0.00,VWS V14.01,2013-01-12 08:31:00,
2013-01-12 03:36:00,42.2,41.9,30.10,North,350,0.0,1.0,99,0.00,,---,0.00,VWS V14.01,2013-01-12 08:36:00,
2013-01-12 03:41:00,42.3,42.0,30.10,North,350,0.0,0.0,99,0.00,,---,0.00,VWS V14.01,2013-01-12 08:41:00,
2013-01-12 03:46:00,42.3,42.0,30.10,North,350,0.0,0.0,99,0.00,,---,0.00,VWS V14.01,2013-01-12 08:46:00,
2013-01-12 03:51:00,42.4,42.1,30.10,North,350,0.0,0.0,99,0.00,,---,0.00,VWS V14.01,2013-01-12 08:51:00,
2013-01-12 03:56:00,42.3,42.0,30.10,North,350,0.0,1.0,99,0.00,,---,0.00,VWS V14.01,2013-01-12 08:56:00,
2013-01-12 04:01:00,42.2,41.9,30.10,North,350,0.0,2.0,99,0.00,,---,0.00,VWS V14.01,2013-01-12 09:01:00,
2013-01-12 04:06:00,42.2,41.9,30.10,North,350,0.0,0.0,99,0.00,,---,0.00,VWS V14.01,2013-01-12 09:06:00,
2013-01-12 04:11:00,42.2,41.9,30.10,North,350,0.0,0.0,99,0.00,,---,0.00,VWS V14.01,2013-01-12 09:11:00,
2013-01-12 04:16:00,42.3,42.0,30.10,WSW,258,1.0,2.0,99,0.00,,---,0.00,VWS V14.01,2013-01-12 09:16:00,
2013-01-12 04:21:00,42.4,42.1,30.10,WNW,290,1.0,3.0,99,0.00,,---,0.00,VWS V14.01,2013-01-12 09:21:00,
2013-01-12 04:26:00,42.4,42.1,30.10,WNW,290,0.0,2.0,99,0.00,,---,0.00,VWS V14.01,2013-01-12 09:26:00,
2013-01-12 04:31:00,42.4,42.1,30.10,WNW,290,0.0,2.0,99,0.00,,---,0.00,VWS V14.01,2013-01-12 09:31:00,
2013-01-12 04:36:00,42.4,42.1,30.10,WNW,290,0.0,1.0,99,0.00,,---,0.00,VWS V14.01,2013-01-12 09:36:00,
2013-01-12 04:41:00,42.3,42.0,30.10,WNW,290,0.0,1.0,99,0.00,,---,0.00,VWS V14.01,2013-01-12 09:41:00,
2013-01-12 04:46:00,42.3,42.0,30.09,WNW,290,1.0,2.0,99,0.00,,---,0.00,VWS V14.01,2013-01-12 09:46:00,
2013-01-12 04:51:00,42.3,42.0,30.09,WNW,290,2.0,2.0,99,0.00,,---,0.00,VWS V14.01,2013-01-12 09:51:00,
2013-01-12 04:56:00,42.4,42.1,30.10,WNW,290,1.0,3.0,99,0.00,,---,0.00,VWS V14.01,2013-01-12 09:56:00,
2013-01-12 05:01:00,42.4,42.1,30.10,WNW,290,0.0,2.0,99,0.00,,---,0.00,VWS V14.01,2013-01-12 10:01:00,
2013-01-12 05:06:00,42.5,42.2,30.10,WNW,290,0.0,2.0,99,0.00,,---,0.00,VWS V14.01,2013-01-12 10:06:00,
2013-01-12 05:11:00,42.6,42.3,30.10,NW,309,3.0,3.0,99,0.00,,---,0.00,VWS V14.01,2013-01-12 10:11:00,
2013-01-12 05:16:00,42.5,42.2,30.10,NW,309,0.0,2.0,99,0.00,,---,0.00,VWS V14.01,2013-01-12 10:16:00,
2013-01-12 05:21:00,42.6,42.3,30.10,NW,309,0.0,3.0,99,0.00,,---,0.00,VWS V14.01,2013-01-12 10:21:00,
2013-01-12 05:26:00,43.0,42.7,30.10,NW,324,1.0,3.0,99,0.00,,---,0.00,VWS V14.01,2013-01-12 10:26:00,
2013-01-12 05:31:00,43.3,43.0,30.10,NW,323,1.0,2.0,99,0.00,,---,0.00,VWS V14.01,2013-01-12 10:31:00,
2013-01-12 05:36:00,43.4,43.1,30.10,NNW,348,3.0,4.0,99,0.00,,---,0.00,VWS V14.01,2013-01-12 10:36:00,
2013-01-12 05:41:00,43.6,43.3,30.10,NNW,348,2.0,4.0,99,0.00,,---,0.00,VWS V14.01,2013-01-12 10:41:00,
2013-01-12 05:46:00,43.8,43.5,30.10,NNW,342,2.0,3.0,99,0.00,,---,0.00,VWS V14.01,2013-01-12 10:46:00,
2013-01-12 05:51:00,43.9,43.6,30.10,North,350,1.0,3.0,99,0.00,,---,0.00,VWS V14.01,2013-01-12 10:51:00,
2013-01-12 05:56:00,44.0,43.7,30.10,NW,309,2.0,3.0,99,0.00,,---,0.00,VWS V14.01,2013-01-12 10:56:00,
2013-01-12 06:01:00,44.2,44.2,30.10,NNW,336,3.0,3.0,100,0.00,,---,0.00,VWS V14.01,2013-01-12 11:01:00,
2013-01-12 06:06:00,44.6,44.3,30.10,NNW,338,2.0,5.0,99,0.00,,---,0.00,VWS V14.01,2013-01-12 11:06:00,
2013-01-12 06:11:00,44.8,44.8,30.10,WNW,296,2.0,5.0,100,0.00,,---,0.00,VWS V14.01,2013-01-12 11:11:00,
2013-01-12 06:16:00,44.9,44.9,30.10,WNW,296,1.0,3.0,100,0.00,,---,0.00,VWS V14.01,2013-01-12 11:16:00,
2013-01-12 06:21:00,44.9,44.9,30.10,West,276,0.0,3.0,100,0.00,,---,0.00,VWS V14.01,2013-01-12 11:21:00,
2013-01-12 06:26:00,44.9,44.9,30.11,NNW,333,2.0,4.0,100,0.00,,---,0.00,VWS V14.01,2013-01-12 11:26:00,
2013-01-12 06:31:00,45.0,45.0,30.11,NNW,333,0.0,4.0,100,0.00,,---,0.00,VWS V14.01,2013-01-12 11:31:00,
2013-01-12 06:36:00,45.0,44.7,30.10,NNW,333,1.0,2.0,99,0.00,,---,0.00,VWS V14.01,2013-01-12 11:36:00,
2013-01-12 06:41:00,44.9,44.6,30.11,NNW,333,2.0,3.0,99,0.00,,---,0.00,VWS V14.01,2013-01-12 11:41:00,
2013-01-12 06:46:00,44.9,44.6,30.11,NNW,333,2.0,4.0,99,0.00,,---,0.00,VWS V14.01,2013-01-12 11:46:00,
2013-01-12 06:51:00,45.1,44.8,30.11,NNW,333,3.0,4.0,99,0.00,,---,0.00,VWS V14.01,2013-01-12 11:51:00,
2013-01-12 06:56:00,45.2,44.9,30.11,WNW,294,2.0,5.0,99,0.00,,---,0.00,VWS V14.01,2013-01-12 11:56:00,
2013-01-12 07:01:00,45.3,45.0,30.11,NW,305,2.0,4.0,99,0.00,,---,0.00,VWS V14.01,2013-01-12 12:01:00,
2013-01-12 07:06:00,45.2,44.9,30.11,WNW,303,1.0,4.0,99,0.00,,---,0.00,VWS V14.01,2013-01-12 12:06:00,
2013-01-12 07:11:00,45.2,44.9,30.11,North,355,3.0,4.0,99,0.00,,---,0.00,VWS V14.01,2013-01-12 12:11:00,
2013-01-12 07:16:00,45.1,44.8,30.11,North,355,1.0,3.0,99,0.00,,---,0.00,VWS V14.01,2013-01-12 12:16:00,
2013-01-12 07:21:00,45.0,44.7,30.11,North,355,2.0,3.0,99,0.00,,---,0.00,VWS V14.01,2013-01-12 12:21:00,
2013-01-12 07:26:00,45.0,44.7,30.11,NW,317,0.0,3.0,99,0.00,,---,0.00,VWS V14.01,2013-01-12 12:26:00,
2013-01-12 07:31:00,45.0,44.7,30.11,NW,317,1.0,2.0,99,0.00,,---,0.00,VWS V14.01,2013-01-12 12:31:00,
2013-01-12 07:36:00,45.0,44.7,30.11,NW,317,0.0,2.0,99,0.00,,---,0.00,VWS V14.01,2013-01-12 12:36:00,
2013-01-12 07:41:00,45.0,44.7,30.11,NW,317,0.0,2.0,99,0.00,,---,0.00,VWS V14.01,2013-01-12 12:41:00,
2013-01-12 07:46:00,45.1,44.8,30.12,NW,317,0.0,2.0,99,0.00,,---,0.00,VWS V14.01,2013-01-12 12:46:00,
2013-01-12 07:51:00,45.1,44.8,30.12,NW,317,1.0,2.0,99,0.00,,---,0.00,VWS V14.01,2013-01-12 12:51:00,
2013-01-12 07:56:00,45.3,45.0,30.12,NW,317,0.0,3.0,99,0.00,,---,0.00,VWS V14.01,2013-01-12 12:56:00,
2013-01-12 08:01:00,45.4,45.1,30.12,NW,317,0.0,2.0,99,0.00,,---,0.00,VWS V14.01,2013-01-12 13:01:00,
2013-01-12 08:06:00,45.6,45.3,30.12,NW,317,0.0,1.0,99,0.00,,---,0.00,VWS V14.01,2013-01-12 13:06:00,
2013-01-12 08:11:00,45.7,45.4,30.12,NW,317,0.0,2.0,99,0.00,,---,0.00,VWS V14.01,2013-01-12 13:11:00,
2013-01-12 08:16:00,45.9,45.6,30.12,NW,317,0.0,2.0,99,0.00,,---,0.00,VWS V14.01,2013-01-12 13:16:00,
2013-01-12 08:21:00,46.1,45.8,30.12,NW,317,0.0,1.0,99,0.00,,---,0.00,VWS V14.01,2013-01-12 13:21:00,
2013-01-12 08:26:00,46.3,46.0,30.12,NW,317,2.0,2.0,99,0.00,,---,0.00,VWS V14.01,2013-01-12 13:26:00,
2013-01-12 08:31:00,46.6,46.3,30.12,NW,317,0.0,2.0,99,0.00,,---,0.00,VWS V14.01,2013-01-12 13:31:00,
2013-01-12 08:36:00,46.7,46.4,30.13,NW,317,0.0,1.0,99,0.00,,---,0.00,VWS V14.01,2013-01-12 13:36:00,
2013-01-12 08:41:00,46.9,46.6,30.13,NW,317,0.0,2.0,99,0.00,,---,0.00,VWS V14.01,2013-01-12 13:41:00,
2013-01-12 08:46:00,47.1,46.8,30.14,NW,317,0.0,2.0,99,0.00,,---,0.00,VWS V14.01,2013-01-12 13:46:00,
2013-01-12 08:51:00,47.2,46.9,30.14,NW,317,0.0,1.0,99,0.00,,---,0.00,VWS V14.01,2013-01-12 13:51:00,
2013-01-12 08:56:00,47.3,47.0,30.13,NW,317,0.0,1.0,99,0.00,,---,0.00,VWS V14.01,2013-01-12 13:56:00,
2013-01-12 09:01:00,47.4,47.1,30.14,NW,317,0.0,2.0,99,0.00,,---,0.00,VWS V14.01,2013-01-12 14:01:00,
2013-01-12 09:06:00,47.5,47.0,30.14,NW,317,0.0,2.0,98,0.00,,---,0.00,VWS V14.01,2013-01-12 14:06:00,
2013-01-12 09:11:00,47.7,47.2,30.14,NW,317,1.0,3.0,98,0.00,,---,0.00,VWS V14.01,2013-01-12 14:11:00,
2013-01-12 09:16:00,47.9,47.6,30.14,NW,317,1.0,2.0,99,0.00,,---,0.00,VWS V14.01,2013-01-12 14:16:00,
2013-01-12 09:21:00,48.1,47.8,30.13,NW,317,1.0,2.0,99,0.00,,---,0.00,VWS V14.01,2013-01-12 14:21:00,
2013-01-12 09:26:00,48.4,48.1,30.14,WNW,283,1.0,3.0,99,0.00,,---,0.00,VWS V14.01,2013-01-12 14:26:00,
2013-01-12 09:31:00,48.6,48.1,30.13,SW,228,3.0,3.0,98,0.00,,---,0.00,VWS V14.01,2013-01-12 14:31:00,
2013-01-12 09:36:00,48.9,48.4,30.14,SW,228,1.0,3.0,98,0.00,,---,0.00,VWS V14.01,2013-01-12 14:36:00,
2013-01-12 09:41:00,49.1,48.6,30.14,SW,228,1.0,2.0,98,0.00,,---,0.00,VWS V14.01,2013-01-12 14:41:00,
2013-01-12 09:46:00,49.2,48.4,30.14,SW,228,0.0,2.0,97,0.00,,---,0.00,VWS V14.01,2013-01-12 14:46:00,
2013-01-12 09:51:00,49.3,48.5,30.14,SW,228,1.0,2.0,97,0.00,,---,0.00,VWS V14.01,2013-01-12 14:51:00,
2013-01-12 09:55:00,49.5,48.7,30.14,SW,228,0.0,2.0,97,0.00,,---,0.00,VWS V14.01,2013-01-12 14:55:00,
2013-01-12 10:00:00,49.7,48.9,30.15,SW,228,2.0,3.0,97,0.00,,---,0.00,VWS V14.01,2013-01-12 15:00:00,
2013-01-12 10:05:00,50.0,49.2,30.15,SW,229,1.0,2.0,97,0.00,,---,0.00,VWS V14.01,2013-01-12 15:05:00,
2013-01-12 10:10:00,50.5,49.7,30.15,SW,229,0.0,1.0,97,0.00,,---,0.00,VWS V14.01,2013-01-12 15:10:00,
2013-01-12 10:15:00,51.1,50.3,30.15,SW,229,1.0,2.0,97,0.00,,---,0.00,VWS V14.01,2013-01-12 15:15:00,
2013-01-12 10:20:00,52.0,51.2,30.15,SW,229,0.0,2.0,97,0.00,,---,0.00,VWS V14.01,2013-01-12 15:20:00,
2013-01-12 10:25:00,52.7,51.6,30.15,SW,229,1.0,2.0,96,0.00,,---,0.00,VWS V14.01,2013-01-12 15:25:00,
2013-01-12 10:30:00,53.5,51.8,30.14,SW,229,1.0,2.0,94,0.00,,---,0.00,VWS V14.01,2013-01-12 15:30:00,
2013-01-12 10:35:00,54.1,52.4,30.14,SW,229,1.0,1.0,94,0.00,,---,0.00,VWS V14.01,2013-01-12 15:35:00,
2013-01-12 10:40:00,55.0,52.7,30.14,SW,229,0.0,2.0,92,0.00,,---,0.00,VWS V14.01,2013-01-12 15:40:00,
2013-01-12 10:45:00,55.9,53.3,30.14,SW,229,1.0,2.0,91,0.00,,---,0.00,VWS V14.01,2013-01-12 15:45:00,
2013-01-12 10:50:00,56.7,53.8,30.14,SW,229,2.0,2.0,90,0.00,,---,0.00,VWS V14.01,2013-01-12 15:50:00,
2013-01-12 10:55:00,57.5,54.3,30.14,SW,231,1.0,3.0,89,0.00,,---,0.00,VWS V14.01,2013-01-12 15:55:00,
2013-01-12 11:00:00,58.1,54.6,30.14,West,278,0.0,4.0,88,0.00,,---,0.00,VWS V14.01,2013-01-12 16:00:00,
2013-01-12 11:05:00,58.7,54.5,30.14,West,278,2.0,2.0,86,0.00,,---,0.00,VWS V14.01,2013-01-12 16:05:00,
2013-01-12 11:10:00,58.9,54.7,30.14,West,278,2.0,3.0,86,0.00,,---,0.00,VWS V14.01,2013-01-12 16:10:00,
2013-01-12 11:15:00,59.3,55.1,30.14,West,278,2.0,3.0,86,0.00,,---,0.00,VWS V14.01,2013-01-12 16:15:00,
2013-01-12 11:20:00,59.7,55.2,30.13,West,278,2.0,2.0,85,0.00,,---,0.00,VWS V14.01,2013-01-12 16:20:00,
2013-01-12 11:25:00,60.0,54.8,30.13,West,278,1.0,3.0,83,0.00,,---,0.00,VWS V14.01,2013-01-12 16:25:00,
2013-01-12 11:30:00,60.5,55.3,30.13,West,278,1.0,2.0,83,0.00,,---,0.00,VWS V14.01,2013-01-12 16:30:00,
2013-01-12 11:35:00,61.0,55.5,30.12,West,278,0.0,2.0,82,0.00,,---,0.00,VWS V14.01,2013-01-12 16:35:00,
2013-01-12 11:40:00,61.7,55.8,30.12,West,278,0.0,2.0,81,0.00,,---,0.00,VWS V14.01,2013-01-12 16:40:00,
2013-01-12 11:45:00,62.1,55.9,30.12,West,278,1.0,2.0,80,0.00,,---,0.00,VWS V14.01,2013-01-12 16:45:00,
2013-01-12 11:50:00,62.6,56.3,30.12,West,278,0.0,2.0,80,0.00,,---,0.00,VWS V14.01,2013-01-12 16:50:00,
2013-01-12 11:55:00,63.4,57.1,30.12,West,278,0.0,2.0,80,0.00,,---,0.00,VWS V14.01,2013-01-12 16:55:00,
2013-01-12 12:00:00,64.1,57.5,30.12,West,278,2.0,3.0,79,0.00,,---,0.00,VWS V14.01,2013-01-12 17:00:00,
2013-01-12 12:05:00,64.5,57.8,30.11,West,278,1.0,2.0,79,0.00,,---,0.00,VWS V14.01,2013-01-12 17:05:00,
2013-01-12 12:10:00,64.8,57.4,30.12,West,278,0.0,2.0,77,0.00,,---,0.00,VWS V14.01,2013-01-12 17:10:00,
2013-01-12 12:15:00,65.0,58.0,30.11,West,278,1.0,1.0,78,0.00,,---,0.00,VWS V14.01,2013-01-12 17:15:00,
2013-01-12 12:20:00,65.3,57.9,30.11,West,278,1.0,1.0,77,0.00,,---,0.00,VWS V14.01,2013-01-12 17:20:00,
2013-01-12 12:25:00,65.6,58.6,30.11,WSW,248,1.0,3.0,78,0.00,,---,0.00,VWS V14.01,2013-01-12 17:25:00,
2013-01-12 12:30:00,65.6,58.2,30.11,WSW,248,1.0,2.0,77,0.00,,---,0.00,VWS V14.01,2013-01-12 17:30:00,
2013-01-12 12:35:00,65.7,58.3,30.11,South,169,0.0,3.0,77,0.00,,---,0.00,VWS V14.01,2013-01-12 17:35:00,
2013-01-12 12:40:00,66.1,58.3,30.11,South,169,0.0,1.0,76,0.00,,---,0.00,VWS V14.01,2013-01-12 17:40:00,
2013-01-12 12:45:00,66.5,58.7,30.11,South,169,1.0,2.0,76,0.00,,---,0.00,VWS V14.01,2013-01-12 17:45:00,
2013-01-12 12:50:00,66.9,58.7,30.10,South,169,1.0,2.0,75,0.00,,---,0.00,VWS V14.01,2013-01-12 17:50:00,
2013-01-12 12:55:00,67.3,59.8,30.10,South,169,0.0,2.0,77,0.00,,---,0.00,VWS V14.01,2013-01-12 17:55:00,
2013-01-12 13:00:00,67.6,59.4,30.10,South,169,0.0,1.0,75,0.00,,---,0.00,VWS V14.01,2013-01-12 18:00:00,
2013-01-12 13:05:00,68.0,59.0,30.10,SSE,168,0.0,1.0,73,0.00,,---,0.00,VWS V14.01,2013-01-12 18:05:00,
2013-01-12 13:10:00,68.5,59.9,30.10,SSE,160,4.0,4.0,74,0.00,,---,0.00,VWS V14.01,2013-01-12 18:10:00,
2013-01-12 13:15:00,68.9,59.5,30.09,SE,144,1.0,5.0,72,0.00,,---,0.00,VWS V14.01,2013-01-12 18:15:00,
2013-01-12 13:20:00,69.2,59.8,30.09,SE,144,0.0,2.0,72,0.00,,---,0.00,VWS V14.01,2013-01-12 18:20:00,
2013-01-12 13:25:00,69.3,59.9,30.09,SSE,159,3.0,4.0,72,0.00,,---,0.00,VWS V14.01,2013-01-12 18:25:00,
2013-01-12 13:30:00,69.4,60.0,30.09,SSE,159,1.0,3.0,72,0.00,,---,0.00,VWS V14.01,2013-01-12 18:30:00,
2013-01-12 13:35:00,69.3,59.5,30.09,SSE,159,0.0,2.0,71,0.00,,---,0.00,VWS V14.01,2013-01-12 18:35:00,
2013-01-12 13:40:00,69.1,59.7,30.09,SSE,159,1.0,2.0,72,0.00,,---,0.00,VWS V14.01,2013-01-12 18:40:00,
2013-01-12 13:45:00,69.0,60.0,30.09,SSE,159,0.0,2.0,73,0.00,,---,0.00,VWS V14.01,2013-01-12 18:45:00,
2013-01-12 13:50:00,68.7,60.1,30.09,SSE,159,0.0,2.0,74,0.00,,---,0.00,VWS V14.01,2013-01-12 18:50:00,
2013-01-12 13:55:00,68.5,59.5,30.09,SSE,159,0.0,1.0,73,0.00,,---,0.00,VWS V14.01,2013-01-12 18:55:00,
2013-01-12 14:00:00,68.4,59.8,30.09,SSE,159,0.0,1.0,74,0.00,,---,0.00,VWS V14.01,2013-01-12 19:00:00,
2013-01-12 14:05:00,68.5,60.3,30.09,SSE,159,0.0,0.0,75,0.00,,---,0.00,VWS V14.01,2013-01-12 19:05:00,
2013-01-12 14:10:00,68.7,60.1,30.09,SSE,159,0.0,1.0,74,0.00,,---,0.00,VWS V14.01,2013-01-12 19:10:00,
2013-01-12 14:15:00,69.0,60.4,30.09,SSE,159,2.0,2.0,74,0.00,,---,0.00,VWS V14.01,2013-01-12 19:15:00,
2013-01-12 14:20:00,69.5,60.5,30.09,ENE,72,3.0,4.0,73,0.00,,---,0.00,VWS V14.01,2013-01-12 19:20:00,
2013-01-12 14:25:00,69.7,60.3,30.09,ENE,72,2.0,4.0,72,0.00,,---,0.00,VWS V14.01,2013-01-12 19:25:00,
2013-01-12 14:30:00,69.9,60.9,30.09,ENE,72,0.0,2.0,73,0.00,,---,0.00,VWS V14.01,2013-01-12 19:30:00,
2013-01-12 14:35:00,69.9,60.5,30.09,SSW,207,0.0,3.0,72,0.00,,---,0.00,VWS V14.01,2013-01-12 19:35:00,
2013-01-12 14:40:00,70.2,60.4,30.09,SSE,165,1.0,4.0,71,0.00,,---,0.00,VWS V14.01,2013-01-12 19:40:00,
2013-01-12 14:45:00,70.6,60.3,30.09,SSE,153,2.0,4.0,70,0.00,,---,0.00,VWS V14.01,2013-01-12 19:45:00,
2013-01-12 14:50:00,70.8,60.5,30.09,SE,138,1.0,4.0,70,0.00,,---,0.00,VWS V14.01,2013-01-12 19:50:00,
2013-01-12 14:55:00,71.1,60.8,30.09,SE,133,1.0,3.0,70,0.00,,---,0.00,VWS V14.01,2013-01-12 19:55:00,
2013-01-12 15:00:00,71.2,60.5,30.09,SE,133,1.0,2.0,69,0.00,,---,0.00,VWS V14.01,2013-01-12 20:00:00,
2013-01-12 15:05:00,71.2,60.5,30.09,SE,133,0.0,2.0,69,0.00,,---,0.00,VWS V14.01,2013-01-12 20:05:00,
2013-01-12 15:10:00,71.3,60.6,30.09,SE,133,0.0,1.0,69,0.00,,---,0.00,VWS V14.01,2013-01-12 20:10:00,
2013-01-12 15:15:00,71.4,60.3,30.09,SE,133,0.0,1.0,68,0.00,,---,0.00,VWS V14.01,2013-01-12 20:15:00,
2013-01-12 15:20:00,71.5,60.4,30.09,SE,133,0.0,0.0,68,0.00,,---,0.00,VWS V14.01,2013-01-12 20:20:00,
2013-01-12 15:25:00,71.6,60.5,30.09,SE,137,1.0,4.0,68,0.00,,---,0.00,VWS V14.01,2013-01-12 20:25:00,
2013-01-12 15:30:00,71.7,60.2,30.09,SE,135,1.0,2.0,67,0.00,,---,0.00,VWS V14.01,2013-01-12 20:30:00,
2013-01-12 15:35:00,71.8,60.7,30.09,SE,135,0.0,2.0,68,0.00,,---,0.00,VWS V14.01,2013-01-12 20:35:00,
2013-01-12 15:40:00,71.8,60.3,30.09,SE,135,2.0,2.0,67,0.00,,---,0.00,VWS V14.01,2013-01-12 20:40:00,
2013-01-12 15:45:00,71.6,60.1,30.09,SE,135,0.0,1.0,67,0.00,,---,0.00,VWS V14.01,2013-01-12 20:45:00,
2013-01-12 15:50:00,71.4,60.3,30.09,ESE,119,0.0,2.0,68,0.00,,---,0.00,VWS V14.01,2013-01-12 20:50:00,
2013-01-12 15:55:00,71.3,59.8,30.09,ESE,123,0.0,2.0,67,0.00,,---,0.00,VWS V14.01,2013-01-12 20:55:00,
2013-01-12 16:00:00,71.3,59.8,30.09,ESE,123,0.0,1.0,67,0.00,,---,0.00,VWS V14.01,2013-01-12 21:00:00,
2013-01-12 16:05:00,71.2,59.7,30.09,ESE,123,2.0,2.0,67,0.00,,---,0.00,VWS V14.01,2013-01-12 21:05:00,
2013-01-12 16:10:00,71.2,59.7,30.09,ESE,123,1.0,2.0,67,0.00,,---,0.00,VWS V14.01,2013-01-12 21:10:00,
2013-01-12 16:15:00,71.1,59.6,30.09,ESE,123,0.0,1.0,67,0.00,,---,0.00,VWS V14.01,2013-01-12 21:15:00,
2013-01-12 16:20:00,71.0,59.5,30.09,SE,125,2.0,4.0,67,0.00,,---,0.00,VWS V14.01,2013-01-12 21:20:00,
2013-01-12 16:25:00,70.9,59.8,30.09,SSE,161,2.0,4.0,68,0.00,,---,0.00,VWS V14.01,2013-01-12 21:25:00,
2013-01-12 16:30:00,70.9,59.8,30.09,SSE,163,2.0,4.0,68,0.00,,---,0.00,VWS V14.01,2013-01-12 21:30:00,
2013-01-12 16:35:00,70.8,59.7,30.09,SSE,150,2.0,4.0,68,0.00,,---,0.00,VWS V14.01,2013-01-12 21:35:00,
2013-01-12 16:40:00,70.8,59.7,30.09,SSE,162,2.0,4.0,68,0.00,,---,0.00,VWS V14.01,2013-01-12 21:40:00,
2013-01-12 16:45:00,70.7,60.0,30.09,SSE,165,1.0,4.0,69,0.00,,---,0.00,VWS V14.01,2013-01-12 21:45:00,
2013-01-12 16:50:00,70.6,60.0,30.09,SE,140,1.0,4.0,69,0.00,,---,0.00,VWS V14.01,2013-01-12 21:50:00,
2013-01-12 16:55:00,70.4,59.8,30.09,SSE,151,1.0,5.0,69,0.00,,---,0.00,VWS V14.01,2013-01-12 21:55:00,
2013-01-12 17:00:00,70.3,59.7,30.09,SSE,151,0.0,3.0,69,0.00,,---,0.00,VWS V14.01,2013-01-12 22:00:00,
2013-01-12 17:05:00,70.1,59.9,30.09,SSE,156,0.0,3.0,70,0.00,,---,0.00,VWS V14.01,2013-01-12 22:05:00,
2013-01-12 17:10:00,69.8,59.6,30.09,SE,136,2.0,5.0,70,0.00,,---,0.00,VWS V14.01,2013-01-12 22:10:00,
2013-01-12 17:15:00,69.6,59.4,30.09,SE,136,0.0,3.0,70,0.00,,---,0.00,VWS V14.01,2013-01-12 22:15:00,
2013-01-12 17:20:00,69.4,59.6,30.10,SE,136,2.0,2.0,71,0.00,,---,0.00,VWS V14.01,2013-01-12 22:20:00,
2013-01-12 17:25:00,69.1,59.3,30.09,SE,136,2.0,3.0,71,0.00,,---,0.00,VWS V14.01,2013-01-12 22:25:00,
2013-01-12 17:30:00,68.9,59.5,30.09,SSE,148,1.0,5.0,72,0.00,,---,0.00,VWS V14.01,2013-01-12 22:30:00,
2013-01-12 17:35:00,68.7,59.3,30.09,SE,138,0.0,5.0,72,0.00,,---,0.00,VWS V14.01,2013-01-12 22:35:00,
2013-01-12 17:40:00,68.4,59.0,30.09,SE,138,0.0,1.0,72,0.00,,---,0.00,VWS V14.01,2013-01-12 22:40:00,
2013-01-12 17:45:00,68.1,59.1,30.09,SE,138,1.0,4.0,73,0.00,,---,0.00,VWS V14.01,2013-01-12 22:45:00,
2013-01-12 17:50:00,67.9,59.3,30.09,SE,138,1.0,2.0,74,0.00,,---,0.00,VWS V14.01,2013-01-12 22:50:00,
2013-01-12 17:55:00,67.7,59.1,30.09,SE,138,1.0,2.0,74,0.00,,---,0.00,VWS V14.01,2013-01-12 22:55:00,
2013-01-12 18:00:00,67.6,59.4,30.09,SE,138,0.0,2.0,75,0.00,,---,0.00,VWS V14.01,2013-01-12 23:00:00,
2013-01-12 18:05:00,67.3,59.8,30.09,SE,138,0.0,1.0,77,0.00,,---,0.00,VWS V14.01,2013-01-12 23:05:00,
2013-01-12 18:10:00,67.0,59.9,30.09,SE,144,2.0,5.0,78,0.00,,---,0.00,VWS V14.01,2013-01-12 23:10:00,
2013-01-12 18:15:00,66.9,60.2,30.09,SSE,152,0.0,3.0,79,0.00,,---,0.00,VWS V14.01,2013-01-12 23:15:00,
2013-01-12 18:20:00,66.7,60.3,30.09,SE,144,1.0,6.0,80,0.00,,---,0.00,VWS V14.01,2013-01-12 23:20:00,
2013-01-12 18:25:00,66.6,60.2,30.09,SE,134,2.0,7.0,80,0.00,,---,0.00,VWS V14.01,2013-01-12 23:25:00,
2013-01-12 18:30:00,66.3,60.3,30.09,SE,126,2.0,5.0,81,0.00,,---,0.00,VWS V14.01,2013-01-12 23:30:00,
2013-01-12 18:35:00,66.0,59.7,30.08,SE,142,1.0,4.0,80,0.00,,---,0.00,VWS V14.01,2013-01-12 23:35:00,
2013-01-12 18:40:00,65.6,59.6,30.09,ESE,121,1.0,2.0,81,0.00,,---,0.00,VWS V14.01,2013-01-12 23:40:00,
2013-01-12 18:45:00,65.3,60.0,30.09,SE,129,0.0,3.0,83,0.00,,---,0.00,VWS V14.01,2013-01-12 23:45:00,
2013-01-12 18:50:00,65.1,59.8,30.09,SE,132,1.0,3.0,83,0.00,,---,0.00,VWS V14.01,2013-01-12 23:50:00,
2013-01-12 18:55:00,64.9,59.6,30.09,SE,146,1.0,4.0,83,0.00,,---,0.00,VWS V14.01,2013-01-12 23:55:00,
2013-01-12 19:00:00,64.6,59.7,30.09,SSE,147,1.0,2.0,84,0.00,,---,0.00,VWS V14.01,2013-01-13 00:00:00,
2013-01-12 19:05:00,64.4,59.5,30.09,SSE,153,4.0,6.0,84,0.00,,---,0.00,VWS V14.01,2013-01-13 00:05:00,
2013-01-12 19:10:00,64.2,59.3,30.09,SSE,152,2.0,6.0,84,0.00,,---,0.00,VWS V14.01,2013-01-13 00:10:00,
2013-01-12 19:15:00,63.9,59.3,30.09,SSE,147,2.0,6.0,85,0.00,,---,0.00,VWS V14.01,2013-01-13 00:15:00,
2013-01-12 19:20:00,63.7,59.1,30.09,South,178,3.0,6.0,85,0.00,,---,0.00,VWS V14.01,2013-01-13 00:20:00,
2013-01-12 19:25:00,63.5,58.9,30.09,SE,130,1.0,5.0,85,0.00,,---,0.00,VWS V14.01,2013-01-13 00:25:00,
2013-01-12 19:29:00,63.3,59.0,30.09,SSE,166,2.0,5.0,86,0.00,,---,0.00,VWS V14.01,2013-01-13 00:29:00,
2013-01-12 19:34:00,63.1,58.8,30.09,SE,134,0.0,4.0,86,0.00,,---,0.00,VWS V14.01,2013-01-13 00:34:00,
2013-01-12 19:39:00,62.9,59.0,30.09,SE,136,2.0,5.0,87,0.00,,---,0.00,VWS V14.01,2013-01-13 00:39:00,
2013-01-12 19:44:00,62.7,58.8,30.09,South,175,2.0,5.0,87,0.00,,---,0.00,VWS V14.01,2013-01-13 00:44:00,
2013-01-12 19:49:00,62.5,58.6,30.10,SSE,158,2.0,6.0,87,0.00,,---,0.00,VWS V14.01,2013-01-13 00:49:00,
2013-01-12 19:54:00,62.2,58.3,30.10,SE,142,1.0,3.0,87,0.00,,---,0.00,VWS V14.01,2013-01-13 00:54:00,
2013-01-12 19:59:00,62.1,58.5,30.10,SSE,150,0.0,3.0,88,0.00,,---,0.00,VWS V14.01,2013-01-13 00:59:00,
2013-01-12 20:04:00,62.0,58.4,30.09,SSE,148,0.0,3.0,88,0.00,,---,0.00,VWS V14.01,2013-01-13 01:04:00,
2013-01-12 20:09:00,61.8,58.2,30.09,SSE,148,0.0,0.0,88,0.00,,---,0.00,VWS V14.01,2013-01-13 01:09:00,
2013-01-12 20:14:00,61.6,58.3,30.09,South,179,1.0,4.0,89,0.00,,---,0.00,VWS V14.01,2013-01-13 01:14:00,
2013-01-12 20:19:00,61.4,58.1,30.09,South,179,0.0,2.0,89,0.00,,---,0.00,VWS V14.01,2013-01-13 01:19:00,
2013-01-12 20:24:00,61.2,57.9,30.09,South,179,0.0,0.0,89,0.00,,---,0.00,VWS V14.01,2013-01-13 01:24:00,
2013-01-12 20:29:00,61.0,58.0,30.09,South,179,0.0,1.0,90,0.00,,---,0.00,VWS V14.01,2013-01-13 01:29:00,
2013-01-12 20:34:00,60.8,57.8,30.10,South,179,0.0,1.0,90,0.00,,---,0.00,VWS V14.01,2013-01-13 01:34:00,
2013-01-12 20:39:00,60.6,58.0,30.10,South,179,0.0,0.0,91,0.00,,---,0.00,VWS V14.01,2013-01-13 01:39:00,
2013-01-12 20:44:00,60.4,57.5,30.10,South,179,0.0,1.0,90,0.00,,---,0.00,VWS V14.01,2013-01-13 01:44:00,
2013-01-12 20:49:00,60.1,57.5,30.09,South,179,1.0,1.0,91,0.00,,---,0.00,VWS V14.01,2013-01-13 01:49:00,
2013-01-12 20:54:00,59.8,57.2,30.09,South,179,0.0,1.0,91,0.00,,---,0.00,VWS V14.01,2013-01-13 01:54:00,
2013-01-12 20:59:00,59.7,57.4,30.09,South,179,0.0,1.0,92,0.00,,---,0.00,VWS V14.01,2013-01-13 01:59:00,
2013-01-12 21:04:00,59.5,57.2,30.09,South,179,0.0,1.0,92,0.00,,---,0.00,VWS V14.01,2013-01-13 02:04:00,
2013-01-12 21:09:00,59.3,57.0,30.09,South,179,0.0,1.0,92,0.00,,---,0.00,VWS V14.01,2013-01-13 02:09:00,
2013-01-12 21:14:00,59.1,56.8,30.09,South,179,0.0,2.0,92,0.00,,---,0.00,VWS V14.01,2013-01-13 02:14:00,
2013-01-12 21:19:00,58.9,56.6,30.09,ESE,122,0.0,2.0,92,0.00,,---,0.00,VWS V14.01,2013-01-13 02:19:00,
2013-01-12 21:24:00,58.7,56.4,30.09,ESE,122,0.0,2.0,92,0.00,,---,0.00,VWS V14.01,2013-01-13 02:24:00,
2013-01-12 21:29:00,58.5,56.5,30.09,ESE,116,1.0,2.0,93,0.00,,---,0.00,VWS V14.01,2013-01-13 02:29:00,
2013-01-12 21:34:00,58.3,56.3,30.09,ESE,116,0.0,2.0,93,0.00,,---,0.00,VWS V14.01,2013-01-13 02:34:00,
2013-01-12 21:39:00,58.1,56.1,30.09,ESE,116,0.0,1.0,93,0.00,,---,0.00,VWS V14.01,2013-01-13 02:39:00,
2013-01-12 21:44:00,57.8,55.8,30.09,ESE,116,0.0,0.0,93,0.00,,---,0.00,VWS V14.01,2013-01-13 02:44:00,
2013-01-12 21:49:00,57.6,55.6,30.09,ESE,116,0.0,1.0,93,0.00,,---,0.00,VWS V14.01,2013-01-13 02:49:00,
2013-01-12 21:54:00,57.4,55.7,30.09,ESE,116,0.0,1.0,94,0.00,,---,0.00,VWS V14.01,2013-01-13 02:54:00,
2013-01-12 21:59:00,57.3,55.6,30.09,ESE,116,0.0,1.0,94,0.00,,---,0.00,VWS V14.01,2013-01-13 02:59:00,
2013-01-12 22:04:00,57.1,55.4,30.08,ESE,116,0.0,0.0,94,0.00,,---,0.00,VWS V14.01,2013-01-13 03:04:00,
2013-01-12 22:09:00,57.1,55.7,30.08,ESE,116,0.0,0.0,95,0.00,,---,0.00,VWS V14.01,2013-01-13 03:09:00,
2013-01-12 22:14:00,57.0,55.6,30.09,ESE,116,0.0,0.0,95,0.00,,---,0.00,VWS V14.01,2013-01-13 03:14:00,
2013-01-12 22:19:00,57.0,55.6,30.09,ESE,116,0.0,0.0,95,0.00,,---,0.00,VWS V14.01,2013-01-13 03:19:00,
2013-01-12 22:24:00,57.0,55.6,30.09,ESE,116,0.0,2.0,95,0.00,,---,0.00,VWS V14.01,2013-01-13 03:24:00,
2013-01-12 22:29:00,57.0,55.9,30.09,ESE,116,0.0,2.0,96,0.00,,---,0.00,VWS V14.01,2013-01-13 03:29:00,
2013-01-12 22:34:00,57.0,55.9,30.09,ESE,116,3.0,3.0,96,0.00,,---,0.00,VWS V14.01,2013-01-13 03:34:00,
2013-01-12 22:39:00,57.2,56.4,30.09,ESE,116,0.0,3.0,97,0.00,,---,0.00,VWS V14.01,2013-01-13 03:39:00,
2013-01-12 22:44:00,57.4,56.6,30.09,ESE,116,2.0,3.0,97,0.00,,---,0.00,VWS V14.01,2013-01-13 03:44:00,
2013-01-12 22:49:00,57.7,57.1,30.09,ESE,115,0.0,3.0,98,0.00,,---,0.00,VWS V14.01,2013-01-13 03:49:00,
2013-01-12 22:54:00,57.8,57.0,30.09,ESE,111,3.0,3.0,97,0.00,,---,0.00,VWS V14.01,2013-01-13 03:54:00,
2013-01-12 22:59:00,57.9,57.1,30.09,East,89,2.0,3.0,97,0.00,,---,0.00,VWS V14.01,2013-01-13 03:59:00,
2013-01-12 23:04:00,58.0,57.2,30.09,ESE,114,2.0,3.0,97,0.00,,---,0.00,VWS V14.01,2013-01-13 04:04:00,
2013-01-12 23:09:00,58.0,57.2,30.09,East,90,0.0,3.0,97,0.00,,---,0.00,VWS V14.01,2013-01-13 04:09:00,
2013-01-12 23:14:00,57.8,56.7,30.09,ENE,78,2.0,2.0,96,0.00,,---,0.00,VWS V14.01,2013-01-13 04:14:00,
2013-01-12 23:19:00,57.6,56.2,30.09,ENE,78,0.0,3.0,95,0.00,,---,0.00,VWS V14.01,2013-01-13 04:19:00,
2013-01-12 23:24:00,57.3,55.9,30.09,ENE,78,0.0,1.0,95,0.00,,---,0.00,VWS V14.01,2013-01-13 04:24:00,
2013-01-12 23:29:00,57.0,55.6,30.09,ENE,78,0.0,1.0,95,0.00,,---,0.00,VWS V14.01,2013-01-13 04:29:00,
2013-01-12 23:34:00,56.8,55.4,30.09,ENE,78,0.0,1.0,95,0.00,,---,0.00,VWS V14.01,2013-01-13 04:34:00,
2013-01-12 23:39:00,56.6,55.2,30.09,ENE,78,0.0,1.0,95,0.00,,---,0.00,VWS V14.01,2013-01-13 04:39:00,
2013-01-12 23:44:00,56.4,55.3,30.09,ENE,78,0.0,0.0,96,0.00,,---,0.00,VWS V14.01,2013-01-13 04:44:00,
2013-01-12 23:49:00,56.2,55.1,30.09,ENE,78,0.0,1.0,96,0.00,,---,0.00,VWS V14.01,2013-01-13 04:49:00,
2013-01-12 23:54:00,56.2,55.4,30.09,ENE,78,1.0,2.0,97,0.00,,---,0.00,VWS V14.01,2013-01-13 04:54:00,
2013-01-12 23:59:00,56.2,55.4,30.09,ENE,78,1.0,2.0,97,0.00,,---,0.00,VWS V14.01,2013-01-13 04:59:00,